createdAt,value
2022-09-25T00:00:32.931Z,65.20
2022-09-25T00:02:34.665Z,65.20
2022-09-25T00:04:36.332Z,65.30
2022-09-25T00:06:39.138Z,65.30
2022-09-25T00:08:40.829Z,66.10
2022-09-25T00:10:47.285Z,65.30
2022-09-25T00:12:48.887Z,65.70
2022-09-25T00:14:51.975Z,66.20
2022-09-25T00:16:53.655Z,66.00
2022-09-25T00:19:14.504Z,65.90
2022-09-25T00:21:17.603Z,65.80
2022-09-25T00:23:19.208Z,65.80
2022-09-25T00:25:20.850Z,66.60
2022-09-25T00:27:22.462Z,66.50
2022-09-25T00:29:24.130Z,65.60
2022-09-25T00:31:25.845Z,65.60
2022-09-25T00:33:28.507Z,65.60
2022-09-25T00:35:30.114Z,65.70
2022-09-25T00:37:35.216Z,65.60
2022-09-25T00:39:36.880Z,65.50
2022-09-25T00:41:38.531Z,65.50
2022-09-25T00:43:41.409Z,65.50
2022-09-25T00:45:43.354Z,65.70
2022-09-25T00:48:11.081Z,65.80
2022-09-25T00:50:32.955Z,65.80
2022-09-25T00:52:34.571Z,66.20
2022-09-25T00:54:47.848Z,66.30
2022-09-25T00:56:51.359Z,66.50
2022-09-25T00:58:52.975Z,66.30
2022-09-25T01:00:54.845Z,66.10
2022-09-25T01:02:56.973Z,66.00
2022-09-25T01:05:00.203Z,66.00
2022-09-25T01:07:02.914Z,65.80
2022-09-25T01:09:04.555Z,65.70
2022-09-25T01:11:06.233Z,65.60
2022-09-25T01:13:08.557Z,65.90
2022-09-25T01:15:12.115Z,66.10
2022-09-25T01:17:21.924Z,66.00
2022-09-25T01:19:43.094Z,66.00
2022-09-25T01:21:50.410Z,65.90
2022-09-25T01:24:07.095Z,65.90
2022-09-25T01:26:15.587Z,66.00
2022-09-25T01:28:26.526Z,66.00
2022-09-25T01:30:29.724Z,66.00
2022-09-25T01:32:37.438Z,66.00
2022-09-25T01:34:41.978Z,66.00
2022-09-25T01:37:06.844Z,65.90
2022-09-25T01:39:11.820Z,66.20
2022-09-25T01:41:20.351Z,66.20
2022-09-25T01:43:22.422Z,66.20
2022-09-25T01:45:28.505Z,66.40
2022-09-25T01:47:33.528Z,66.40
2022-09-25T01:49:42.540Z,66.20
2022-09-25T01:51:47.039Z,66.30
2022-09-25T01:53:52.177Z,66.10
2022-09-25T01:55:56.905Z,66.20
2022-09-25T01:58:07.970Z,66.30
2022-09-25T02:00:13.429Z,66.20
2022-09-25T02:02:19.146Z,66.20
2022-09-25T02:04:24.987Z,66.20
2022-09-25T02:06:26.695Z,66.20
2022-09-25T02:08:34.537Z,66.20
2022-09-25T02:10:49.123Z,66.20
2022-09-25T02:12:52.681Z,66.10
2022-09-25T02:14:58.168Z,66.60
2022-09-25T02:17:01.326Z,66.80
2022-09-25T02:19:21.954Z,66.80
2022-09-25T02:22:03.156Z,66.60
2022-09-25T02:24:14.857Z,66.50
2022-09-25T02:26:21.932Z,66.50
2022-09-25T02:28:23.541Z,66.60
2022-09-25T02:30:25.417Z,66.40
2022-09-25T02:32:30.778Z,66.30
2022-09-25T02:34:32.803Z,66.40
2022-09-25T02:36:34.432Z,66.20
2022-09-25T02:38:36.355Z,66.20
2022-09-25T02:40:44.658Z,66.20
2022-09-25T02:42:46.309Z,66.40
2022-09-25T02:44:53.878Z,66.40
2022-09-25T02:47:01.571Z,66.50
2022-09-25T02:49:15.348Z,66.40
2022-09-25T02:51:24.500Z,66.30
2022-09-25T02:53:35.035Z,66.20
2022-09-25T02:55:39.385Z,66.30
2022-09-25T02:57:56.783Z,66.50
2022-09-25T03:00:00.420Z,66.40
2022-09-25T03:02:02.475Z,66.40
2022-09-25T03:04:05.381Z,66.40
2022-09-25T03:06:07.791Z,66.50
2022-09-25T03:08:28.195Z,66.50
2022-09-25T03:10:31.396Z,66.70
2022-09-25T03:12:36.150Z,66.70
2022-09-25T03:14:37.750Z,66.70
2022-09-25T03:16:47.399Z,66.80
2022-09-25T03:18:49.067Z,66.70
2022-09-25T03:20:50.650Z,66.70
2022-09-25T03:22:52.256Z,66.60
2022-09-25T03:24:54.007Z,66.60
2022-09-25T03:26:58.386Z,66.50
2022-09-25T03:29:02.057Z,66.50
2022-09-25T03:31:05.411Z,66.50
2022-09-25T03:33:07.650Z,66.50
2022-09-25T03:35:09.411Z,66.50
2022-09-25T03:37:11.000Z,66.60
2022-09-25T03:39:14.973Z,66.60
2022-09-25T03:41:20.120Z,66.70
2022-09-25T03:43:21.747Z,66.70
2022-09-25T03:45:23.359Z,66.60
2022-09-25T03:47:24.957Z,66.60
2022-09-25T03:49:26.530Z,66.70
2022-09-25T03:51:28.986Z,66.50
2022-09-25T03:53:33.696Z,66.60
2022-09-25T03:55:36.039Z,66.50
2022-09-25T03:57:38.639Z,66.60
2022-09-25T03:59:40.529Z,66.60
2022-09-25T04:01:42.446Z,66.60
2022-09-25T04:03:47.407Z,66.80
2022-09-25T04:05:49.145Z,66.90
2022-09-25T04:07:50.721Z,67.00
2022-09-25T04:09:52.286Z,67.10
2022-09-25T04:11:56.019Z,67.30
2022-09-25T04:13:57.965Z,67.30
2022-09-25T04:16:01.042Z,67.10
2022-09-25T04:18:06.137Z,67.00
2022-09-25T04:20:08.154Z,66.80
2022-09-25T04:22:09.741Z,66.80
2022-09-25T04:24:30.157Z,67.00
2022-09-25T04:26:32.210Z,66.90
2022-09-25T04:28:34.220Z,67.10
2022-09-25T04:30:35.994Z,67.40
2022-09-25T04:32:56.218Z,67.40
2022-09-25T04:34:59.742Z,67.50
2022-09-25T04:37:01.351Z,67.50
2022-09-25T04:39:03.445Z,67.80
2022-09-25T04:41:05.615Z,67.60
2022-09-25T04:43:07.266Z,67.60
2022-09-25T04:45:09.076Z,67.50
2022-09-25T04:47:10.727Z,67.30
2022-09-25T04:49:12.411Z,67.30
2022-09-25T04:51:14.055Z,67.30
2022-09-25T04:53:16.354Z,67.20
2022-09-25T04:55:18.598Z,67.20
2022-09-25T04:57:45.569Z,67.30
2022-09-25T04:59:42.715Z,67.30
2022-09-25T05:01:44.383Z,67.30
2022-09-25T05:03:53.896Z,67.20
2022-09-25T05:05:55.945Z,67.20
2022-09-25T05:07:58.797Z,67.10
2022-09-25T05:10:00.393Z,67.10
2022-09-25T05:12:01.987Z,67.10
2022-09-25T05:14:03.677Z,67.10
2022-09-25T05:16:05.470Z,67.00
2022-09-25T05:18:16.241Z,67.10
2022-09-25T05:20:17.996Z,67.00
2022-09-25T05:22:19.606Z,67.00
2022-09-25T05:24:21.244Z,67.10
2022-09-25T05:26:23.231Z,67.00
2022-09-25T05:28:24.913Z,67.00
2022-09-25T05:30:27.918Z,67.00
2022-09-25T05:32:30.959Z,67.10
2022-09-25T05:34:32.574Z,67.30
2022-09-25T05:36:34.154Z,67.30
2022-09-25T05:38:39.595Z,67.50
2022-09-25T05:40:41.238Z,67.40
2022-09-25T05:42:44.086Z,67.30
2022-09-25T05:44:45.895Z,67.30
2022-09-25T05:46:47.515Z,67.30
2022-09-25T05:48:49.159Z,67.40
2022-09-25T05:50:51.566Z,67.40
2022-09-25T05:52:57.151Z,67.50
2022-09-25T05:54:58.750Z,67.50
2022-09-25T05:57:00.417Z,67.40
2022-09-25T05:59:02.047Z,67.40
2022-09-25T06:01:04.598Z,67.40
2022-09-25T06:03:06.274Z,67.40
2022-09-25T06:05:08.959Z,67.40
2022-09-25T06:07:10.580Z,67.40
2022-09-25T06:09:12.166Z,67.40
2022-09-25T06:11:13.924Z,67.40
2022-09-25T06:13:15.591Z,67.50
2022-09-25T06:15:17.211Z,67.60
2022-09-25T06:17:19.112Z,67.30
2022-09-25T06:19:20.930Z,67.30
2022-09-25T06:21:22.559Z,67.20
2022-09-25T06:23:24.168Z,67.20
2022-09-25T06:25:27.258Z,67.20
2022-09-25T06:27:28.835Z,67.30
2022-09-25T06:29:30.432Z,67.40
2022-09-25T06:31:32.614Z,67.50
2022-09-25T06:33:34.279Z,67.60
2022-09-25T06:35:36.672Z,67.70
2022-09-25T06:37:38.251Z,67.90
2022-09-25T06:39:39.837Z,68.20
2022-09-25T06:41:41.932Z,68.00
2022-09-25T06:43:48.631Z,67.90
2022-09-25T06:45:51.234Z,68.10
2022-09-25T06:48:02.999Z,68.20
2022-09-25T06:50:04.751Z,68.10
2022-09-25T06:52:06.377Z,68.00
2022-09-25T06:54:08.039Z,68.30
2022-09-25T06:56:09.757Z,69.40
2022-09-25T06:58:12.732Z,68.30
2022-09-25T07:00:14.428Z,68.20
2022-09-25T07:02:34.846Z,67.90
2022-09-25T07:04:39.624Z,67.70
2022-09-25T07:06:41.269Z,67.70
2022-09-25T07:08:48.051Z,68.60
2022-09-25T07:10:50.355Z,67.70
2022-09-25T07:12:52.005Z,67.80
2022-09-25T07:14:53.572Z,67.80
2022-09-25T07:16:55.164Z,67.90
2022-09-25T07:18:58.413Z,67.70
2022-09-25T07:21:04.944Z,67.80
2022-09-25T07:23:06.558Z,67.70
2022-09-25T07:25:09.270Z,67.70
2022-09-25T07:27:10.863Z,67.80
2022-09-25T07:29:12.611Z,67.80
2022-09-25T07:31:21.321Z,68.00
2022-09-25T07:33:24.887Z,68.00
2022-09-25T07:35:27.163Z,68.10
2022-09-25T07:37:28.827Z,68.10
2022-09-25T07:39:30.431Z,68.10
2022-09-25T07:41:32.311Z,68.10
2022-09-25T07:43:34.601Z,68.10
2022-09-25T07:45:36.735Z,68.20
2022-09-25T07:47:38.318Z,68.20
2022-09-25T07:49:40.114Z,68.10
2022-09-25T07:51:41.786Z,68.00
2022-09-25T07:53:44.061Z,68.10
2022-09-25T07:55:46.037Z,68.40
2022-09-25T07:57:53.943Z,68.10
2022-09-25T07:59:55.940Z,68.20
2022-09-25T08:01:58.388Z,68.20
2022-09-25T08:04:21.056Z,68.10
2022-09-25T08:06:25.462Z,68.00
2022-09-25T08:08:27.372Z,68.10
2022-09-25T08:10:28.980Z,68.20
2022-09-25T08:12:33.606Z,68.30
2022-09-25T08:14:37.083Z,68.40
2022-09-25T08:16:38.944Z,68.10
2022-09-25T08:18:41.699Z,68.30
2022-09-25T08:20:43.854Z,68.20
2022-09-25T08:22:45.702Z,68.30
2022-09-25T08:24:48.629Z,68.00
2022-09-25T08:26:50.250Z,68.10
2022-09-25T08:28:52.016Z,68.10
2022-09-25T08:30:54.175Z,68.20
2022-09-25T08:32:55.869Z,68.40
2022-09-25T08:34:57.472Z,68.20
2022-09-25T08:36:59.160Z,67.90
2022-09-25T08:39:00.978Z,68.10
2022-09-25T08:41:04.842Z,68.00
2022-09-25T08:43:08.115Z,68.10
2022-09-25T08:45:31.026Z,68.00
2022-09-25T08:47:51.287Z,67.90
2022-09-25T08:50:11.291Z,68.10
2022-09-25T08:52:16.185Z,68.10
2022-09-25T08:54:20.766Z,68.20
2022-09-25T08:56:24.584Z,68.20
2022-09-25T08:58:29.656Z,68.60
2022-09-25T09:00:31.843Z,68.30
2022-09-25T09:02:38.457Z,68.30
2022-09-25T09:04:51.721Z,68.40
2022-09-25T09:07:24.707Z,69.20
2022-09-25T09:09:20.772Z,68.40
2022-09-25T09:11:26.330Z,68.40
2022-09-25T09:13:38.453Z,68.60
2022-09-25T09:16:03.160Z,68.60
2022-09-25T09:18:14.258Z,68.40
2022-09-25T09:20:17.741Z,68.40
2022-09-25T09:22:22.560Z,69.00
2022-09-25T09:24:43.135Z,67.90
2022-09-25T09:26:53.735Z,67.80
2022-09-25T09:29:14.277Z,67.80
2022-09-25T09:31:30.138Z,68.10
2022-09-25T09:33:44.023Z,67.90
2022-09-25T09:35:57.575Z,68.00
2022-09-25T09:38:02.309Z,68.00
2022-09-25T09:40:24.281Z,67.90
2022-09-25T09:42:32.412Z,68.00
2022-09-25T09:44:34.008Z,68.10
2022-09-25T09:46:40.287Z,68.00
2022-09-25T09:48:49.441Z,67.70
2022-09-25T09:50:58.045Z,67.70
2022-09-25T09:53:02.977Z,67.60
2022-09-25T09:55:07.475Z,67.50
2022-09-25T09:57:17.730Z,67.50
2022-09-25T09:59:23.121Z,67.50
2022-09-25T10:01:40.992Z,67.50
2022-09-25T10:03:44.954Z,67.50
2022-09-25T10:05:48.001Z,67.50
2022-09-25T10:07:50.581Z,67.60
2022-09-25T10:09:54.240Z,67.70
2022-09-25T10:12:12.176Z,67.70
2022-09-25T10:14:22.235Z,67.50
2022-09-25T10:16:24.395Z,67.40
2022-09-25T10:18:28.915Z,67.40
2022-09-25T10:20:36.282Z,67.40
2022-09-25T10:22:40.326Z,67.40
2022-09-25T10:24:49.721Z,67.50
2022-09-25T10:26:51.384Z,67.50
2022-09-25T10:28:53.631Z,67.50
2022-09-25T10:30:56.000Z,67.50
2022-09-25T10:33:00.869Z,67.30
2022-09-25T10:35:03.312Z,67.40
2022-09-25T10:37:16.009Z,67.50
2022-09-25T10:39:44.755Z,67.50
2022-09-25T10:41:49.979Z,67.40
2022-09-25T10:43:53.729Z,67.50
2022-09-25T10:46:04.425Z,67.50
2022-09-25T10:48:39.987Z,67.30
2022-09-25T10:50:42.255Z,67.00
2022-09-25T10:52:58.807Z,67.10
2022-09-25T10:55:19.695Z,67.20
2022-09-25T10:57:50.335Z,67.20
2022-09-25T10:59:52.385Z,67.30
2022-09-25T11:01:55.833Z,67.30
2022-09-25T11:03:58.143Z,67.40
2022-09-25T11:06:08.442Z,67.40
2022-09-25T11:08:15.329Z,67.50
2022-09-25T11:10:21.015Z,67.50
2022-09-25T11:12:25.162Z,67.70
2022-09-25T11:14:32.830Z,67.20
2022-09-25T11:16:45.373Z,67.30
2022-09-25T11:18:51.155Z,67.30
2022-09-25T11:21:01.203Z,67.30
2022-09-25T11:23:04.632Z,67.40
2022-09-25T11:25:12.946Z,67.50
2022-09-25T11:27:18.577Z,67.70
2022-09-25T11:29:42.796Z,67.40
2022-09-25T11:31:52.958Z,67.60
2022-09-25T11:34:13.573Z,67.50
2022-09-25T11:36:18.485Z,67.50
2022-09-25T11:38:20.194Z,67.50
2022-09-25T11:40:49.143Z,67.20
2022-09-25T11:42:58.350Z,67.10
2022-09-25T11:45:15.131Z,66.90
2022-09-25T11:47:33.841Z,67.10
2022-09-25T11:49:37.972Z,67.20
2022-09-25T11:51:51.767Z,67.10
2022-09-25T11:54:32.687Z,66.80
2022-09-25T11:56:41.407Z,66.80
2022-09-25T11:58:55.326Z,66.80
2022-09-25T12:01:06.111Z,67.00
2022-09-25T12:03:19.967Z,66.80
2022-09-25T12:05:35.084Z,66.70
2022-09-25T12:07:40.581Z,66.50
2022-09-25T12:10:04.217Z,66.20
2022-09-25T12:12:17.964Z,66.30
2022-09-25T12:14:27.437Z,66.50
2022-09-25T12:16:37.989Z,66.60
2022-09-25T12:18:40.348Z,67.00
2022-09-25T12:20:55.959Z,66.60
2022-09-25T12:23:15.011Z,66.60
2022-09-25T12:25:16.641Z,66.60
2022-09-25T12:27:18.347Z,66.40
2022-09-25T12:29:19.998Z,67.20
2022-09-25T12:31:38.258Z,66.30
2022-09-25T12:33:39.879Z,66.50
2022-09-25T12:35:59.719Z,66.40
2022-09-25T12:38:05.543Z,66.50
2022-09-25T12:40:15.158Z,66.60
2022-09-25T12:42:39.910Z,66.20
2022-09-25T12:44:56.555Z,65.80
2022-09-25T12:47:03.906Z,65.60
2022-09-25T12:49:11.149Z,65.80
2022-09-25T12:51:22.479Z,65.60
2022-09-25T12:53:30.564Z,65.60
2022-09-25T12:55:36.869Z,65.80
2022-09-25T12:57:38.558Z,65.90
2022-09-25T12:59:47.498Z,66.10
2022-09-25T13:02:07.975Z,66.30
2022-09-25T13:04:18.767Z,67.40
2022-09-25T13:06:26.987Z,66.80
2022-09-25T13:08:34.150Z,66.80
2022-09-25T13:10:41.672Z,67.00
2022-09-25T13:12:44.200Z,67.10
2022-09-25T13:14:48.937Z,67.10
2022-09-25T13:16:50.996Z,67.00
2022-09-25T13:19:12.165Z,67.00
2022-09-25T13:21:24.334Z,66.80
2022-09-25T13:23:41.379Z,66.50
2022-09-25T13:25:58.019Z,66.40
2022-09-25T13:28:05.850Z,66.20
2022-09-25T13:30:19.311Z,66.00
2022-09-25T13:32:27.335Z,66.10
2022-09-25T13:34:33.860Z,66.30
2022-09-25T13:36:36.033Z,66.40
2022-09-25T13:39:03.003Z,66.40
2022-09-25T13:41:14.062Z,66.40
2022-09-25T13:43:25.872Z,66.40
2022-09-25T13:45:30.255Z,66.40
2022-09-25T13:47:34.934Z,66.10
2022-09-25T13:49:36.713Z,65.90
2022-09-25T13:51:38.449Z,65.90
2022-09-25T13:53:59.013Z,65.70
2022-09-25T13:56:00.588Z,65.70
2022-09-25T13:58:02.507Z,65.70
2022-09-25T14:00:05.994Z,65.70
2022-09-25T14:02:33.195Z,65.80
2022-09-25T14:04:36.803Z,65.70
2022-09-25T14:06:39.635Z,65.30
2022-09-25T14:08:42.919Z,65.40
2022-09-25T14:10:46.177Z,65.40
2022-09-25T14:12:49.125Z,65.30
2022-09-25T14:14:57.234Z,65.30
2022-09-25T14:16:59.730Z,65.40
2022-09-25T14:19:02.226Z,65.30
2022-09-25T14:21:07.652Z,65.30
2022-09-25T14:23:22.365Z,65.20
2022-09-25T14:25:33.211Z,65.10
2022-09-25T14:27:35.505Z,65.20
2022-09-25T14:29:40.605Z,65.50
2022-09-25T14:31:48.345Z,65.70
2022-09-25T14:33:51.732Z,65.50
2022-09-25T14:36:12.403Z,65.40
2022-09-25T14:38:26.465Z,65.30
2022-09-25T14:40:36.416Z,65.20
2022-09-25T14:42:38.239Z,65.10
2022-09-25T14:44:40.040Z,65.10
2022-09-25T14:46:43.038Z,65.40
2022-09-25T14:48:47.726Z,65.40
2022-09-25T14:50:52.298Z,65.20
2022-09-25T14:52:58.937Z,65.00
2022-09-25T14:55:01.844Z,65.00
2022-09-25T14:57:05.981Z,65.10
2022-09-25T14:59:10.392Z,65.00
2022-09-25T15:01:25.945Z,65.00
2022-09-25T15:03:31.222Z,64.80
2022-09-25T15:05:34.321Z,65.00
2022-09-25T15:07:41.732Z,65.00
2022-09-25T15:09:48.228Z,65.20
2022-09-25T15:11:53.784Z,64.90
2022-09-25T15:14:09.082Z,64.60
2022-09-25T15:16:40.773Z,64.90
2022-09-25T15:18:44.209Z,64.90
2022-09-25T15:20:47.313Z,64.90
2022-09-25T15:23:00.763Z,64.90
2022-09-25T15:25:04.311Z,64.80
2022-09-25T15:27:07.123Z,65.00
2022-09-25T15:29:14.999Z,65.20
2022-09-25T15:31:16.935Z,65.00
2022-09-25T15:33:23.290Z,65.00
2022-09-25T15:35:25.987Z,65.10
2022-09-25T15:37:30.966Z,65.00
2022-09-25T15:39:40.111Z,65.00
2022-09-25T15:41:42.772Z,65.30
2022-09-25T15:43:45.588Z,65.40
2022-09-25T15:46:10.523Z,65.30
2022-09-25T15:48:12.398Z,65.10
2022-09-25T15:50:19.754Z,65.20
2022-09-25T15:52:32.685Z,65.30
2022-09-25T15:54:37.148Z,65.40
2022-09-25T15:56:45.262Z,65.40
2022-09-25T15:58:52.133Z,65.30
2022-09-25T16:01:14.611Z,65.10
2022-09-25T16:03:37.851Z,65.20
2022-09-25T16:05:43.759Z,65.20
2022-09-25T16:07:47.762Z,65.10
2022-09-25T16:09:51.785Z,65.10
2022-09-25T16:11:53.641Z,65.10
2022-09-25T16:14:22.596Z,65.10
2022-09-25T16:16:24.858Z,65.20
2022-09-25T16:18:32.517Z,65.20
2022-09-25T16:20:35.669Z,65.40
2022-09-25T16:22:39.545Z,65.50
2022-09-25T16:24:41.739Z,65.40
2022-09-25T16:26:44.113Z,65.40
2022-09-25T16:28:50.001Z,65.50
2022-09-25T16:31:01.973Z,65.60
2022-09-25T16:33:21.368Z,65.50
2022-09-25T16:36:08.895Z,65.50
2022-09-25T16:38:04.345Z,65.60
2022-09-25T16:40:18.780Z,65.40
2022-09-25T16:42:31.319Z,65.30
2022-09-25T16:44:33.084Z,65.20
2022-09-25T16:46:34.879Z,65.30
2022-09-25T16:48:37.689Z,65.10
2022-09-25T16:50:39.959Z,65.00
2022-09-25T16:52:43.258Z,65.10
2022-09-25T16:54:45.103Z,65.30
2022-09-25T16:56:48.188Z,65.30
2022-09-25T16:58:50.746Z,65.30
2022-09-25T17:00:52.560Z,65.40
2022-09-25T17:02:54.581Z,65.50
2022-09-25T17:04:57.117Z,65.40
2022-09-25T17:06:59.066Z,65.50
2022-09-25T17:09:01.141Z,65.40
2022-09-25T17:11:02.933Z,65.50
2022-09-25T17:13:04.840Z,65.50
2022-09-25T17:15:07.441Z,65.50
2022-09-25T17:17:09.769Z,65.50
2022-09-25T17:19:16.063Z,65.50
2022-09-25T17:21:19.438Z,65.50
2022-09-25T17:23:22.155Z,65.80
2022-09-25T17:25:23.988Z,65.80
2022-09-25T17:27:26.187Z,65.80
2022-09-25T17:29:28.276Z,65.80
2022-09-25T17:31:30.356Z,65.70
2022-09-25T17:33:32.456Z,65.70
2022-09-25T17:35:40.176Z,65.70
2022-09-25T17:37:42.036Z,66.40
2022-09-25T17:39:43.930Z,65.40
2022-09-25T17:41:45.748Z,65.40
2022-09-25T17:43:48.069Z,65.50
2022-09-25T17:45:54.519Z,65.70
2022-09-25T17:47:56.969Z,65.80
2022-09-25T17:49:59.257Z,65.70
2022-09-25T17:52:01.180Z,65.60
2022-09-25T17:54:05.844Z,65.80
2022-09-25T17:56:07.787Z,65.70
2022-09-25T17:58:09.619Z,65.70
2022-09-25T18:00:11.962Z,65.60
2022-09-25T18:02:15.895Z,65.70
2022-09-25T18:04:22.389Z,65.60
2022-09-25T18:06:25.253Z,65.80
2022-09-25T18:08:27.059Z,65.80
2022-09-25T18:10:29.045Z,66.00
2022-09-25T18:12:31.050Z,66.00
2022-09-25T18:14:34.178Z,65.70
2022-09-25T18:16:37.801Z,65.50
2022-09-25T18:18:58.286Z,65.50
2022-09-25T18:21:18.660Z,65.50
2022-09-25T18:23:20.545Z,65.60
2022-09-25T18:25:22.446Z,65.70
2022-09-25T18:27:25.630Z,65.70
2022-09-25T18:29:27.453Z,65.60
2022-09-25T18:31:29.882Z,65.50
2022-09-25T18:33:31.799Z,65.70
2022-09-25T18:35:33.624Z,65.80
2022-09-25T18:37:35.611Z,65.70
2022-09-25T18:39:37.582Z,65.70
2022-09-25T18:41:39.812Z,65.70
2022-09-25T18:43:41.772Z,65.70
2022-09-25T18:45:51.137Z,65.80
2022-09-25T18:47:54.009Z,66.00
2022-09-25T18:49:55.968Z,66.10
2022-09-25T18:51:57.804Z,66.00
2022-09-25T18:53:59.685Z,66.10
2022-09-25T18:56:01.690Z,66.10
2022-09-25T18:58:03.592Z,66.20
2022-09-25T19:00:06.496Z,66.10
2022-09-25T19:02:19.662Z,66.10
2022-09-25T19:04:21.675Z,66.20
2022-09-25T19:06:23.579Z,66.20
2022-09-25T19:08:25.785Z,66.20
2022-09-25T19:10:30.356Z,66.10
2022-09-25T19:12:32.253Z,66.10
2022-09-25T19:14:35.342Z,66.20
2022-09-25T19:16:38.565Z,66.20
2022-09-25T19:18:42.617Z,66.20
2022-09-25T19:20:48.271Z,66.30
2022-09-25T19:22:50.449Z,66.20
2022-09-25T19:24:55.549Z,66.10
2022-09-25T19:26:58.039Z,66.20
2022-09-25T19:29:00.478Z,66.20
2022-09-25T19:31:03.780Z,66.10
2022-09-25T19:33:05.693Z,66.20
2022-09-25T19:35:07.691Z,66.10
2022-09-25T19:37:09.542Z,66.20
2022-09-25T19:39:11.419Z,66.20
2022-09-25T19:41:14.871Z,66.20
2022-09-25T19:43:16.733Z,66.20
2022-09-25T19:45:19.683Z,66.20
2022-09-25T19:47:21.736Z,66.10
2022-09-25T19:49:24.759Z,66.10
2022-09-25T19:51:27.069Z,66.10
2022-09-25T19:53:28.887Z,66.10
2022-09-25T19:55:31.347Z,66.10
2022-09-25T19:57:33.251Z,66.20
2022-09-25T19:59:35.721Z,66.20
2022-09-25T20:01:38.266Z,66.10
2022-09-25T20:03:40.101Z,66.10
2022-09-25T20:05:42.608Z,66.20
2022-09-25T20:07:44.273Z,66.30
2022-09-25T20:09:46.098Z,66.30
2022-09-25T20:11:47.839Z,66.50
2022-09-25T20:13:50.772Z,66.50
2022-09-25T20:15:54.846Z,66.40
2022-09-25T20:17:56.590Z,66.40
2022-09-25T20:19:58.234Z,66.40
2022-09-25T20:21:59.910Z,66.40
2022-09-25T20:24:02.895Z,66.40
2022-09-25T20:26:11.278Z,66.50
2022-09-25T20:28:13.867Z,66.40
2022-09-25T20:30:15.606Z,66.40
2022-09-25T20:32:17.278Z,66.40
2022-09-25T20:34:20.113Z,66.40
2022-09-25T20:36:22.515Z,66.50
2022-09-25T20:38:25.132Z,66.40
2022-09-25T20:40:27.710Z,66.40
2022-09-25T20:42:29.506Z,66.50
2022-09-25T20:44:31.177Z,66.50
2022-09-25T20:46:33.344Z,66.50
2022-09-25T20:48:36.327Z,66.50
2022-09-25T20:50:37.990Z,66.50
2022-09-25T20:52:39.876Z,67.30
2022-09-25T20:54:41.783Z,66.50
2022-09-25T20:56:46.778Z,66.50
2022-09-25T20:58:53.132Z,66.70
2022-09-25T21:01:00.084Z,66.70
2022-09-25T21:03:01.784Z,66.60
2022-09-25T21:05:03.516Z,66.60
2022-09-25T21:07:05.172Z,66.70
2022-09-25T21:09:08.068Z,66.50
2022-09-25T21:11:11.690Z,66.40
2022-09-25T21:13:13.727Z,66.50
2022-09-25T21:15:15.391Z,66.50
2022-09-25T21:17:17.204Z,66.60
2022-09-25T21:19:20.815Z,66.70
2022-09-25T21:21:23.163Z,66.80
2022-09-25T21:23:25.137Z,66.80
2022-09-25T21:25:29.760Z,66.90
2022-09-25T21:27:31.404Z,66.90
2022-09-25T21:29:33.771Z,66.90
2022-09-25T21:31:38.347Z,66.80
2022-09-25T21:33:40.109Z,66.90
2022-09-25T21:35:46.053Z,66.90
2022-09-25T21:37:47.686Z,66.90
2022-09-25T21:39:49.303Z,67.20
2022-09-25T21:41:50.965Z,67.10
2022-09-25T21:43:56.477Z,67.20
2022-09-25T21:45:59.189Z,67.10
2022-09-25T21:48:00.913Z,67.00
2022-09-25T21:50:02.550Z,67.00
2022-09-25T21:52:04.180Z,67.10
2022-09-25T21:54:07.762Z,66.80
2022-09-25T21:56:11.192Z,66.90
2022-09-25T21:58:12.908Z,67.00
2022-09-25T22:00:16.315Z,67.10
2022-09-25T22:02:18.437Z,67.40
2022-09-25T22:04:20.053Z,67.20
2022-09-25T22:06:23.407Z,67.10
2022-09-25T22:08:25.034Z,67.00
2022-09-25T22:10:27.299Z,67.00
2022-09-25T22:12:28.921Z,66.80
2022-09-25T22:14:30.552Z,66.80
2022-09-25T22:16:36.504Z,67.00
2022-09-25T22:18:45.490Z,67.10
2022-09-25T22:20:47.082Z,67.10
2022-09-25T22:22:49.164Z,66.90
2022-09-25T22:24:50.781Z,66.80
2022-09-25T22:26:53.293Z,66.90
2022-09-25T22:28:55.612Z,67.00
2022-09-25T22:30:57.340Z,67.00
2022-09-25T22:32:58.943Z,67.00
2022-09-25T22:35:00.542Z,66.90
2022-09-25T22:37:02.221Z,66.80
2022-09-25T22:39:04.735Z,66.90
2022-09-25T22:41:10.494Z,66.70
2022-09-25T22:43:12.095Z,66.60
2022-09-25T22:45:13.801Z,66.70
2022-09-25T22:47:15.388Z,66.70
2022-09-25T22:49:17.069Z,66.80
2022-09-25T22:51:20.180Z,66.70
2022-09-25T22:53:22.547Z,66.80
2022-09-25T22:55:24.872Z,66.80
2022-09-25T22:57:26.519Z,66.80
2022-09-25T22:59:28.109Z,66.80
2022-09-25T23:01:31.923Z,66.90
2022-09-25T23:03:33.565Z,66.90
2022-09-25T23:05:36.358Z,66.90
2022-09-25T23:07:38.057Z,67.10
2022-09-25T23:09:39.634Z,66.90
2022-09-25T23:11:41.779Z,66.80
2022-09-25T23:13:43.369Z,66.80
2022-09-25T23:15:45.053Z,66.90
2022-09-25T23:17:46.656Z,66.90
2022-09-25T23:19:48.321Z,66.80
2022-09-25T23:21:55.262Z,66.80
2022-09-25T23:23:57.604Z,67.00
2022-09-25T23:26:03.443Z,67.00
2022-09-25T23:28:05.256Z,66.80
2022-09-25T23:30:07.151Z,66.60
2022-09-25T23:32:10.247Z,66.50
2022-09-25T23:34:12.123Z,66.60
2022-09-25T23:36:20.858Z,66.60
2022-09-25T23:38:22.441Z,66.60
2022-09-25T23:40:24.076Z,66.60
2022-09-25T23:42:25.736Z,66.40
2022-09-25T23:44:27.346Z,66.60
2022-09-25T23:46:30.525Z,66.50
2022-09-25T23:48:32.196Z,66.50
2022-09-25T23:50:33.810Z,66.60
2022-09-25T23:52:35.577Z,66.50
2022-09-25T23:54:37.162Z,66.50
2022-09-25T23:56:39.178Z,66.40
2022-09-25T23:58:41.096Z,66.30
